sensor_id;sensor_type;location;lat;lon;timestamp;pressure;altitude;pressure_sealevel;temperature;humidity
5053;BME280;2545;50.892;5.740;2022-08-19T00:01:53;100453.66;;;18.50;100.00
5053;BME280;2545;50.892;5.740;2022-08-19T00:04:22;100457.13;;;18.42;100.00
5053;BME280;2545;50.892;5.740;2022-08-19T00:06:47;100459.22;;;18.47;100.00
5053;BME280;2545;50.892;5.740;2022-08-19T00:09:15;100462.81;;;18.46;100.00
5053;BME280;2545;50.892;5.740;2022-08-19T00:11:42;100459.53;;;18.52;100.00
5053;BME280;2545;50.892;5.740;2022-08-19T00:14:10;100455.09;;;18.52;100.00
5053;BME280;2545;50.892;5.740;2022-08-19T00:16:37;100449.59;;;18.47;100.00
5053;BME280;2545;50.892;5.740;2022-08-19T00:19:04;100454.97;;;18.46;100.00
5053;BME280;2545;50.892;5.740;2022-08-19T00:21:29;100459.38;;;18.45;100.00
5053;BME280;2545;50.892;5.740;2022-08-19T00:23:56;100448.84;;;18.39;100.00
5053;BME280;2545;50.892;5.740;2022-08-19T00:26:24;100444.53;;;18.31;100.00
5053;BME280;2545;50.892;5.740;2022-08-19T00:28:50;100461.13;;;18.38;100.00
5053;BME280;2545;50.892;5.740;2022-08-19T00:31:15;100447.31;;;18.30;100.00
5053;BME280;2545;50.892;5.740;2022-08-19T00:33:41;100451.53;;;18.16;100.00
5053;BME280;2545;50.892;5.740;2022-08-19T00:36:08;100449.97;;;18.07;100.00
5053;BME280;2545;50.892;5.740;2022-08-19T00:38:35;100449.81;;;18.09;100.00
5053;BME280;2545;50.892;5.740;2022-08-19T00:41:01;100458.63;;;18.08;100.00
5053;BME280;2545;50.892;5.740;2022-08-19T00:43:27;100443.03;;;17.99;100.00
5053;BME280;2545;50.892;5.740;2022-08-19T00:45:53;100445.66;;;17.99;100.00
5053;BME280;2545;50.892;5.740;2022-08-19T00:48:19;100454.75;;;18.04;100.00
5053;BME280;2545;50.892;5.740;2022-08-19T00:50:46;100437.00;;;17.99;100.00
5053;BME280;2545;50.892;5.740;2022-08-19T00:53:15;100436.38;;;17.97;100.00
5053;BME280;2545;50.892;5.740;2022-08-19T00:55:44;100441.25;;;18.00;100.00
5053;BME280;2545;50.892;5.740;2022-08-19T00:58:14;100427.25;;;17.93;100.00
5053;BME280;2545;50.892;5.740;2022-08-19T01:00:41;100442.13;;;18.07;100.00
5053;BME280;2545;50.892;5.740;2022-08-19T01:03:09;100447.72;;;18.04;100.00
5053;BME280;2545;50.892;5.740;2022-08-19T01:05:36;100440.16;;;17.94;100.00
5053;BME280;2545;50.892;5.740;2022-08-19T01:08:03;100459.06;;;17.96;100.00
5053;BME280;2545;50.892;5.740;2022-08-19T01:10:35;100460.47;;;17.84;100.00
5053;BME280;2545;50.892;5.740;2022-08-19T01:13:03;100446.66;;;17.76;100.00
5053;BME280;2545;50.892;5.740;2022-08-19T01:15:32;100453.53;;;17.77;100.00
5053;BME280;2545;50.892;5.740;2022-08-19T01:18:06;100458.66;;;17.85;100.00
5053;BME280;2545;50.892;5.740;2022-08-19T01:20:32;100459.28;;;17.87;100.00
5053;BME280;2545;50.892;5.740;2022-08-19T01:23:00;100455.06;;;17.86;100.00
5053;BME280;2545;50.892;5.740;2022-08-19T01:25:28;100462.84;;;17.94;100.00
5053;BME280;2545;50.892;5.740;2022-08-19T01:27:55;100464.34;;;17.88;100.00
5053;BME280;2545;50.892;5.740;2022-08-19T01:30:27;100461.09;;;17.86;100.00
5053;BME280;2545;50.892;5.740;2022-08-19T01:32:53;100451.66;;;17.85;100.00
5053;BME280;2545;50.892;5.740;2022-08-19T01:35:20;100458.31;;;17.88;100.00
5053;BME280;2545;50.892;5.740;2022-08-19T01:37:53;100462.56;;;17.89;100.00
5053;BME280;2545;50.892;5.740;2022-08-19T01:40:21;100469.38;;;17.90;100.00
5053;BME280;2545;50.892;5.740;2022-08-19T01:42:48;100474.31;;;17.85;100.00
5053;BME280;2545;50.892;5.740;2022-08-19T01:45:14;100463.78;;;17.78;100.00
5053;BME280;2545;50.892;5.740;2022-08-19T01:47:39;100469.66;;;17.80;100.00
5053;BME280;2545;50.892;5.740;2022-08-19T01:50:08;100471.59;;;17.78;100.00
5053;BME280;2545;50.892;5.740;2022-08-19T01:52:36;100477.72;;;17.71;100.00
5053;BME280;2545;50.892;5.740;2022-08-19T01:55:01;100463.91;;;17.62;100.00
5053;BME280;2545;50.892;5.740;2022-08-19T01:57:27;100483.78;;;17.63;100.00
5053;BME280;2545;50.892;5.740;2022-08-19T01:59:52;100471.91;;;17.61;100.00
5053;BME280;2545;50.892;5.740;2022-08-19T02:02:19;100465.84;;;17.60;100.00
5053;BME280;2545;50.892;5.740;2022-08-19T02:04:44;100455.59;;;17.59;100.00
5053;BME280;2545;50.892;5.740;2022-08-19T02:07:10;100474.28;;;17.70;100.00
5053;BME280;2545;50.892;5.740;2022-08-19T02:09:36;100483.44;;;17.66;100.00
5053;BME280;2545;50.892;5.740;2022-08-19T02:12:01;100479.72;;;17.61;100.00
5053;BME280;2545;50.892;5.740;2022-08-19T02:14:27;100476.00;;;17.55;100.00
5053;BME280;2545;50.892;5.740;2022-08-19T02:16:52;100485.16;;;17.51;100.00
5053;BME280;2545;50.892;5.740;2022-08-19T02:19:17;100482.56;;;17.51;100.00
5053;BME280;2545;50.892;5.740;2022-08-19T02:21:43;100478.78;;;17.54;100.00
5053;BME280;2545;50.892;5.740;2022-08-19T02:24:09;100492.91;;;17.67;100.00
5053;BME280;2545;50.892;5.740;2022-08-19T02:26:34;100485.88;;;17.68;100.00
5053;BME280;2545;50.892;5.740;2022-08-19T02:28:59;100494.69;;;17.67;100.00
5053;BME280;2545;50.892;5.740;2022-08-19T02:31:26;100478.66;;;17.47;100.00
5053;BME280;2545;50.892;5.740;2022-08-19T02:33:53;100473.50;;;17.39;100.00
5053;BME280;2545;50.892;5.740;2022-08-19T02:36:18;100470.56;;;17.34;100.00
5053;BME280;2545;50.892;5.740;2022-08-19T02:38:44;100473.84;;;17.36;100.00
5053;BME280;2545;50.892;5.740;2022-08-19T02:41:19;100482.63;;;17.35;100.00
5053;BME280;2545;50.892;5.740;2022-08-19T02:43:44;100484.94;;;17.30;100.00
5053;BME280;2545;50.892;5.740;2022-08-19T02:46:19;100480.91;;;17.27;100.00
5053;BME280;2545;50.892;5.740;2022-08-19T02:48:51;100475.34;;;17.30;100.00
5053;BME280;2545;50.892;5.740;2022-08-19T02:51:22;100471.97;;;17.22;100.00
5053;BME280;2545;50.892;5.740;2022-08-19T02:53:48;100477.34;;;17.20;100.00
5053;BME280;2545;50.892;5.740;2022-08-19T02:56:13;100463.53;;;17.12;100.00
5053;BME280;2545;50.892;5.740;2022-08-19T02:58:39;100472.66;;;17.16;100.00
5053;BME280;2545;50.892;5.740;2022-08-19T03:01:05;100466.31;;;17.10;100.00
5053;BME280;2545;50.892;5.740;2022-08-19T03:03:31;100476.63;;;17.04;100.00
5053;BME280;2545;50.892;5.740;2022-08-19T03:06:12;100480.66;;;17.06;100.00
5053;BME280;2545;50.892;5.740;2022-08-19T03:08:41;100485.41;;;17.03;100.00
5053;BME280;2545;50.892;5.740;2022-08-19T03:11:22;100491.09;;;17.06;100.00
5053;BME280;2545;50.892;5.740;2022-08-19T03:13:48;100482.50;;;16.98;100.00
5053;BME280;2545;50.892;5.740;2022-08-19T03:16:20;100482.50;;;16.98;100.00
5053;BME280;2545;50.892;5.740;2022-08-19T03:18:46;100481.97;;;17.02;100.00
5053;BME280;2545;50.892;5.740;2022-08-19T03:21:20;100489.94;;;17.09;100.00
5053;BME280;2545;50.892;5.740;2022-08-19T03:23:46;100480.66;;;17.06;100.00
5053;BME280;2545;50.892;5.740;2022-08-19T03:26:12;100490.13;;;17.07;100.00
5053;BME280;2545;50.892;5.740;2022-08-19T03:28:39;100494.53;;;17.07;100.00
5053;BME280;2545;50.892;5.740;2022-08-19T03:31:07;100498.28;;;17.04;100.00
5053;BME280;2545;50.892;5.740;2022-08-19T03:33:34;100497.97;;;16.99;100.00
5053;BME280;2545;50.892;5.740;2022-08-19T03:36:10;100502.53;;;16.97;100.00
5053;BME280;2545;50.892;5.740;2022-08-19T03:38:38;100505.34;;;16.96;100.00
5053;BME280;2545;50.892;5.740;2022-08-19T03:41:07;100503.69;;;16.95;100.00
5053;BME280;2545;50.892;5.740;2022-08-19T03:43:35;100502.25;;;16.92;100.00
5053;BME280;2545;50.892;5.740;2022-08-19T03:46:05;100506.31;;;16.95;100.00
5053;BME280;2545;50.892;5.740;2022-08-19T03:48:32;100502.41;;;16.91;100.00
5053;BME280;2545;50.892;5.740;2022-08-19T03:50:59;100497.19;;;16.91;100.00
5053;BME280;2545;50.892;5.740;2022-08-19T03:53:27;100503.72;;;16.86;100.00
5053;BME280;2545;50.892;5.740;2022-08-19T03:55:53;100502.72;;;16.87;100.00
5053;BME280;2545;50.892;5.740;2022-08-19T03:58:20;100502.63;;;16.73;100.00
5053;BME280;2545;50.892;5.740;2022-08-19T04:00:45;100500.13;;;16.87;100.00
5053;BME280;2545;50.892;5.740;2022-08-19T04:03:10;100497.53;;;16.87;100.00
5053;BME280;2545;50.892;5.740;2022-08-19T04:05:36;100492.53;;;16.78;100.00
5053;BME280;2545;50.892;5.740;2022-08-19T04:08:03;100498.19;;;16.81;100.00
5053;BME280;2545;50.892;5.740;2022-08-19T04:10:28;100504.41;;;16.80;100.00
5053;BME280;2545;50.892;5.740;2022-08-19T04:12:53;100497.41;;;16.73;100.00
5053;BME280;2545;50.892;5.740;2022-08-19T04:15:19;100498.88;;;16.67;100.00
5053;BME280;2545;50.892;5.740;2022-08-19T04:17:45;100506.22;;;16.72;100.00
5053;BME280;2545;50.892;5.740;2022-08-19T04:20:11;100499.84;;;16.74;100.00
5053;BME280;2545;50.892;5.740;2022-08-19T04:22:37;100509.63;;;16.72;100.00
5053;BME280;2545;50.892;5.740;2022-08-19T04:25:02;100502.63;;;16.73;100.00
5053;BME280;2545;50.892;5.740;2022-08-19T04:27:28;100499.56;;;16.69;100.00
5053;BME280;2545;50.892;5.740;2022-08-19T04:29:54;100489.13;;;16.69;100.00
5053;BME280;2545;50.892;5.740;2022-08-19T04:32:20;100480.94;;;16.72;100.00
5053;BME280;2545;50.892;5.740;2022-08-19T04:34:46;100487.13;;;16.79;100.00
5053;BME280;2545;50.892;5.740;2022-08-19T04:37:11;100491.38;;;16.80;100.00
5053;BME280;2545;50.892;5.740;2022-08-19T04:39:38;100492.00;;;16.82;100.00
5053;BME280;2545;50.892;5.740;2022-08-19T04:42:22;100505.22;;;16.81;100.00
5053;BME280;2545;50.892;5.740;2022-08-19T04:45:07;100499.56;;;16.69;100.00
5053;BME280;2545;50.892;5.740;2022-08-19T04:47:35;100512.72;;;16.68;100.00
5053;BME280;2545;50.892;5.740;2022-08-19T04:50:02;100504.47;;;16.56;100.00
5053;BME280;2545;50.892;5.740;2022-08-19T04:52:28;100511.75;;;16.61;100.00
5053;BME280;2545;50.892;5.740;2022-08-19T04:54:53;100518.75;;;16.68;100.00
5053;BME280;2545;50.892;5.740;2022-08-19T04:57:20;100500.69;;;16.75;100.00
5053;BME280;2545;50.892;5.740;2022-08-19T04:59:46;100518.38;;;16.87;100.00
5053;BME280;2545;50.892;5.740;2022-08-19T05:02:11;100508.59;;;16.90;100.00
5053;BME280;2545;50.892;5.740;2022-08-19T05:04:37;100512.16;;;16.97;100.00
5053;BME280;2545;50.892;5.740;2022-08-19T05:07:04;100505.00;;;16.91;100.00
5053;BME280;2545;50.892;5.740;2022-08-19T05:09:29;100505.66;;;16.93;100.00
5053;BME280;2545;50.892;5.740;2022-08-19T05:11:54;100523.25;;;16.91;100.00
5053;BME280;2545;50.892;5.740;2022-08-19T05:14:20;100527.16;;;16.95;100.00
5053;BME280;2545;50.892;5.740;2022-08-19T05:16:46;100530.25;;;16.90;100.00
5053;BME280;2545;50.892;5.740;2022-08-19T05:19:12;100525.41;;;16.79;100.00
5053;BME280;2545;50.892;5.740;2022-08-19T05:21:55;100538.91;;;16.82;100.00
5053;BME280;2545;50.892;5.740;2022-08-19T05:24:39;100531.44;;;16.79;100.00
5053;BME280;2545;50.892;5.740;2022-08-19T05:27:05;100524.59;;;16.86;100.00
5053;BME280;2545;50.892;5.740;2022-08-19T05:29:32;100529.63;;;16.88;100.00
5053;BME280;2545;50.892;5.740;2022-08-19T05:32:00;100527.50;;;16.92;100.00
5053;BME280;2545;50.892;5.740;2022-08-19T05:34:26;100531.03;;;17.07;100.00
5053;BME280;2545;50.892;5.740;2022-08-19T05:36:55;100529.34;;;17.14;100.00
5053;BME280;2545;50.892;5.740;2022-08-19T05:39:23;100512.88;;;17.13;100.00
5053;BME280;2545;50.892;5.740;2022-08-19T05:42:00;100536.44;;;17.28;100.00
5053;BME280;2545;50.892;5.740;2022-08-19T05:44:28;100540.50;;;17.38;100.00
5053;BME280;2545;50.892;5.740;2022-08-19T05:46:56;100546.28;;;17.49;100.00
5053;BME280;2545;50.892;5.740;2022-08-19T05:49:23;100542.75;;;17.41;100.00
5053;BME280;2545;50.892;5.740;2022-08-19T05:51:49;100549.22;;;17.62;100.00
5053;BME280;2545;50.892;5.740;2022-08-19T05:54:15;100539.53;;;17.70;100.00
5053;BME280;2545;50.892;5.740;2022-08-19T05:56:41;100554.63;;;17.83;100.00
5053;BME280;2545;50.892;5.740;2022-08-19T05:59:09;100547.78;;;17.82;100.00
5053;BME280;2545;50.892;5.740;2022-08-19T06:01:38;100557.59;;;18.03;100.00
5053;BME280;2545;50.892;5.740;2022-08-19T06:04:04;100554.91;;;18.11;100.00
5053;BME280;2545;50.892;5.740;2022-08-19T06:06:30;100559.78;;;18.14;100.00
5053;BME280;2545;50.892;5.740;2022-08-19T06:08:55;100566.09;;;18.19;100.00
5053;BME280;2545;50.892;5.740;2022-08-19T06:11:38;100554.56;;;18.14;100.00
5053;BME280;2545;50.892;5.740;2022-08-19T06:14:06;100574.69;;;18.28;100.00
5053;BME280;2545;50.892;5.740;2022-08-19T06:16:38;100558.06;;;18.43;100.00
5053;BME280;2545;50.892;5.740;2022-08-19T06:19:06;100558.06;;;18.43;100.00
5053;BME280;2545;50.892;5.740;2022-08-19T06:21:34;100556.47;;;18.57;100.00
5053;BME280;2545;50.892;5.740;2022-08-19T06:24:02;100560.03;;;18.64;100.00
5053;BME280;2545;50.892;5.740;2022-08-19T06:26:28;100576.78;;;18.70;100.00
5053;BME280;2545;50.892;5.740;2022-08-19T06:28:54;100579.16;;;18.79;100.00
5053;BME280;2545;50.892;5.740;2022-08-19T06:31:23;100572.06;;;18.28;100.00
5053;BME280;2545;50.892;5.740;2022-08-19T06:33:49;100583.56;;;18.41;100.00
5053;BME280;2545;50.892;5.740;2022-08-19T06:36:23;100589.94;;;18.62;100.00
5053;BME280;2545;50.892;5.740;2022-08-19T06:38:54;100578.31;;;18.64;100.00
5053;BME280;2545;50.892;5.740;2022-08-19T06:41:21;100580.38;;;18.69;100.00
5053;BME280;2545;50.892;5.740;2022-08-19T06:43:47;100579.41;;;18.70;100.00
5053;BME280;2545;50.892;5.740;2022-08-19T06:46:15;100572.63;;;18.61;100.00
5053;BME280;2545;50.892;5.740;2022-08-19T06:48:41;100591.94;;;18.74;100.00
5053;BME280;2545;50.892;5.740;2022-08-19T06:51:06;100583.09;;;18.75;100.00
5053;BME280;2545;50.892;5.740;2022-08-19T06:53:32;100589.53;;;18.87;100.00
5053;BME280;2545;50.892;5.740;2022-08-19T06:55:58;100595.22;;;18.91;100.00
5053;BME280;2545;50.892;5.740;2022-08-19T06:58:24;100593.00;;;18.80;100.00
5053;BME280;2545;50.892;5.740;2022-08-19T07:00:50;100593.66;;;18.82;100.00
5053;BME280;2545;50.892;5.740;2022-08-19T07:03:16;100594.97;;;18.63;100.00
5053;BME280;2545;50.892;5.740;2022-08-19T07:05:43;100591.06;;;18.82;100.00
5053;BME280;2545;50.892;5.740;2022-08-19T07:08:08;100588.31;;;18.61;100.00
5053;BME280;2545;50.892;5.740;2022-08-19T07:10:35;100591.75;;;18.61;100.00
5053;BME280;2545;50.892;5.740;2022-08-19T07:13:02;100587.03;;;18.57;100.00
5053;BME280;2545;50.892;5.740;2022-08-19T07:15:28;100599.47;;;18.54;100.00
5053;BME280;2545;50.892;5.740;2022-08-19T07:17:54;100596.53;;;18.72;100.00
5053;BME280;2545;50.892;5.740;2022-08-19T07:20:20;100586.69;;;18.74;100.00
5053;BME280;2545;50.892;5.740;2022-08-19T07:22:45;100600.50;;;18.97;100.00
5053;BME280;2545;50.892;5.740;2022-08-19T07:25:11;100581.94;;;18.92;100.00
5053;BME280;2545;50.892;5.740;2022-08-19T07:27:38;100606.19;;;18.86;100.00
5053;BME280;2545;50.892;5.740;2022-08-19T07:30:04;100613.22;;;19.00;100.00
5053;BME280;2545;50.892;5.740;2022-08-19T07:32:30;100620.34;;;19.06;100.00
5053;BME280;2545;50.892;5.740;2022-08-19T07:34:56;100620.09;;;19.31;100.00
5053;BME280;2545;50.892;5.740;2022-08-19T07:37:21;100609.38;;;19.55;100.00
5053;BME280;2545;50.892;5.740;2022-08-19T07:39:47;100604.41;;;19.31;100.00
5053;BME280;2545;50.892;5.740;2022-08-19T07:42:12;100616.44;;;19.40;100.00
5053;BME280;2545;50.892;5.740;2022-08-19T07:44:39;100617.56;;;19.37;100.00
5053;BME280;2545;50.892;5.740;2022-08-19T07:47:05;100626.06;;;19.54;100.00
5053;BME280;2545;50.892;5.740;2022-08-19T07:49:32;100610.19;;;19.55;100.00
5053;BME280;2545;50.892;5.740;2022-08-19T07:51:59;100623.16;;;19.63;100.00
5053;BME280;2545;50.892;5.740;2022-08-19T07:54:29;100613.81;;;19.90;100.00
5053;BME280;2545;50.892;5.740;2022-08-19T07:56:55;100624.75;;;19.79;100.00
5053;BME280;2545;50.892;5.740;2022-08-19T07:59:20;100620.22;;;19.73;100.00
5053;BME280;2545;50.892;5.740;2022-08-19T08:01:47;100624.13;;;19.77;100.00
5053;BME280;2545;50.892;5.740;2022-08-19T08:04:13;100624.84;;;19.71;100.00
5053;BME280;2545;50.892;5.740;2022-08-19T08:06:57;100625.09;;;20.12;100.00
5053;BME280;2545;50.892;5.740;2022-08-19T08:09:43;100638.59;;;20.30;100.00
5053;BME280;2545;50.892;5.740;2022-08-19T08:12:15;100629.75;;;20.80;100.00
5053;BME280;2545;50.892;5.740;2022-08-19T08:14:44;100640.25;;;21.08;100.00
5053;BME280;2545;50.892;5.740;2022-08-19T08:17:12;100648.97;;;21.49;100.00
5053;BME280;2545;50.892;5.740;2022-08-19T08:19:39;100657.03;;;21.13;100.00
5053;BME280;2545;50.892;5.740;2022-08-19T08:22:07;100641.22;;;20.79;100.00
5053;BME280;2545;50.892;5.740;2022-08-19T08:24:33;100646.22;;;20.95;100.00
5053;BME280;2545;50.892;5.740;2022-08-19T08:27:01;100632.91;;;21.24;100.00
5053;BME280;2545;50.892;5.740;2022-08-19T08:29:29;100632.16;;;21.44;100.00
5053;BME280;2545;50.892;5.740;2022-08-19T08:31:55;100643.22;;;21.33;100.00
5053;BME280;2545;50.892;5.740;2022-08-19T08:34:21;100641.03;;;21.43;100.00
5053;BME280;2545;50.892;5.740;2022-08-19T08:36:47;100641.56;;;21.25;100.00
5053;BME280;2545;50.892;5.740;2022-08-19T08:39:17;100642.91;;;21.14;100.00
5053;BME280;2545;50.892;5.740;2022-08-19T08:46:59;100648.00;;;21.57;100.00
5053;BME280;2545;50.892;5.740;2022-08-19T08:49:36;100658.25;;;21.99;100.00
5053;BME280;2545;50.892;5.740;2022-08-19T08:52:07;100654.69;;;22.39;100.00
5053;BME280;2545;50.892;5.740;2022-08-19T08:54:55;100662.75;;;22.12;100.00
5053;BME280;2545;50.892;5.740;2022-08-19T08:57:35;100662.91;;;21.97;100.00
5053;BME280;2545;50.892;5.740;2022-08-19T09:00:05;100661.38;;;22.42;100.00
5053;BME280;2545;50.892;5.740;2022-08-19T09:02:31;100655.16;;;22.69;99.75
5053;BME280;2545;50.892;5.740;2022-08-19T09:04:57;100666.47;;;22.50;96.91
5053;BME280;2545;50.892;5.740;2022-08-19T09:10:29;100657.34;;;22.46;99.71
5053;BME280;2545;50.892;5.740;2022-08-19T09:15:45;100656.94;;;22.49;100.00
5053;BME280;2545;50.892;5.740;2022-08-19T09:18:11;100656.94;;;22.49;99.46
5053;BME280;2545;50.892;5.740;2022-08-19T09:20:37;100655.31;;;22.41;97.67
5053;BME280;2545;50.892;5.740;2022-08-19T09:23:03;100654.06;;;22.24;99.92
5053;BME280;2545;50.892;5.740;2022-08-19T09:25:28;100653.44;;;22.16;100.00
5053;BME280;2545;50.892;5.740;2022-08-19T09:27:55;100667.59;;;22.08;100.00
5053;BME280;2545;50.892;5.740;2022-08-19T09:30:26;100659.72;;;22.15;100.00
5053;BME280;2545;50.892;5.740;2022-08-19T09:32:52;100659.56;;;23.02;96.67
5053;BME280;2545;50.892;5.740;2022-08-19T09:35:19;100652.28;;;22.51;92.10
5053;BME280;2545;50.892;5.740;2022-08-19T09:37:44;100654.69;;;22.39;91.91
5053;BME280;2545;50.892;5.740;2022-08-19T09:40:11;100661.81;;;22.52;92.09
5053;BME280;2545;50.892;5.740;2022-08-19T09:42:36;100651.91;;;22.74;92.62
5053;BME280;2545;50.892;5.740;2022-08-19T09:45:02;100659.56;;;23.08;86.31
5053;BME280;2545;50.892;5.740;2022-08-19T09:47:28;100651.66;;;22.42;95.89
5053;BME280;2545;50.892;5.740;2022-08-19T09:49:53;100649.63;;;23.10;91.30
5053;BME280;2545;50.892;5.740;2022-08-19T09:52:20;100661.53;;;23.32;89.01
5053;BME280;2545;50.892;5.740;2022-08-19T09:54:45;100649.22;;;23.20;88.34
5053;BME280;2545;50.892;5.740;2022-08-19T09:57:10;100649.41;;;23.18;89.39
5053;BME280;2545;50.892;5.740;2022-08-19T09:59:36;100661.16;;;23.29;87.08
5053;BME280;2545;50.892;5.740;2022-08-19T10:04:27;100653.31;;;22.96;88.19
5053;BME280;2545;50.892;5.740;2022-08-19T10:07:12;100652.28;;;23.10;87.05
5053;BME280;2545;50.892;5.740;2022-08-19T10:09:38;100641.38;;;22.80;90.58
5053;BME280;2545;50.892;5.740;2022-08-19T10:12:04;100649.09;;;23.59;81.44
5053;BME280;2545;50.892;5.740;2022-08-19T10:14:30;100653.06;;;23.17;88.00
5053;BME280;2545;50.892;5.740;2022-08-19T10:16:56;100642.53;;;24.19;79.68
5053;BME280;2545;50.892;5.740;2022-08-19T10:19:21;100642.94;;;24.72;73.32
5053;BME280;2545;50.892;5.740;2022-08-19T10:21:46;100642.38;;;24.63;73.41
5053;BME280;2545;50.892;5.740;2022-08-19T10:24:12;100647.63;;;24.70;71.17
5053;BME280;2545;50.892;5.740;2022-08-19T10:26:39;100655.50;;;24.21;73.70
5053;BME280;2545;50.892;5.740;2022-08-19T10:29:07;100639.13;;;25.11;69.76
5053;BME280;2545;50.892;5.740;2022-08-19T10:31:33;100642.19;;;25.08;67.49
5053;BME280;2545;50.892;5.740;2022-08-19T10:33:59;100638.34;;;25.95;64.09
5053;BME280;2545;50.892;5.740;2022-08-19T10:36:31;100648.88;;;25.29;64.61
5053;BME280;2545;50.892;5.740;2022-08-19T10:39:05;100640.75;;;25.96;62.71
5053;BME280;2545;50.892;5.740;2022-08-19T10:41:33;100631.03;;;26.96;57.74
5053;BME280;2545;50.892;5.740;2022-08-19T10:44:05;100639.53;;;27.61;55.62
5053;BME280;2545;50.892;5.740;2022-08-19T10:46:32;100642.72;;;28.48;51.39
5053;BME280;2545;50.892;5.740;2022-08-19T10:48:59;100642.06;;;28.24;50.59
5053;BME280;2545;50.892;5.740;2022-08-19T10:51:25;100636.50;;;28.59;49.68
5053;BME280;2545;50.892;5.740;2022-08-19T10:54:09;100644.47;;;28.26;50.65
5053;BME280;2545;50.892;5.740;2022-08-19T10:56:35;100646.75;;;28.67;49.79
5053;BME280;2545;50.892;5.740;2022-08-19T10:59:27;100635.75;;;28.97;48.47
5053;BME280;2545;50.892;5.740;2022-08-19T11:01:54;100640.88;;;29.69;46.47
5053;BME280;2545;50.892;5.740;2022-08-19T11:04:19;100646.09;;;30.07;44.42
5053;BME280;2545;50.892;5.740;2022-08-19T11:06:48;100632.44;;;29.98;44.63
5053;BME280;2545;50.892;5.740;2022-08-19T11:09:18;100657.13;;;30.89;42.23
5053;BME280;2545;50.892;5.740;2022-08-19T11:11:44;100633.47;;;29.06;46.74
5053;BME280;2545;50.892;5.740;2022-08-19T11:14:13;100629.03;;;29.54;45.83
5053;BME280;2545;50.892;5.740;2022-08-19T11:16:40;100623.84;;;29.21;46.26
5053;BME280;2545;50.892;5.740;2022-08-19T11:19:07;100629.00;;;28.23;44.73
5053;BME280;2545;50.892;5.740;2022-08-19T11:21:35;100609.28;;;28.52;44.00
5053;BME280;2545;50.892;5.740;2022-08-19T11:24:04;100624.47;;;29.07;42.34
5053;BME280;2545;50.892;5.740;2022-08-19T11:26:32;100612.94;;;29.66;41.48
5053;BME280;2545;50.892;5.740;2022-08-19T11:28:58;100621.13;;;30.13;41.41
5053;BME280;2545;50.892;5.740;2022-08-19T11:31:27;100608.59;;;28.07;45.17
5053;BME280;2545;50.892;5.740;2022-08-19T11:33:56;100611.13;;;30.62;40.52
5053;BME280;2545;50.892;5.740;2022-08-19T11:36:21;100613.19;;;31.49;39.48
5053;BME280;2545;50.892;5.740;2022-08-19T11:38:48;100611.09;;;31.61;39.17
5053;BME280;2545;50.892;5.740;2022-08-19T11:41:16;100619.16;;;32.31;37.78
5053;BME280;2545;50.892;5.740;2022-08-19T11:43:41;100625.25;;;31.82;38.29
5053;BME280;2545;50.892;5.740;2022-08-19T11:46:09;100612.38;;;30.18;40.98
5053;BME280;2545;50.892;5.740;2022-08-19T11:48:36;100602.75;;;30.11;41.81
5053;BME280;2545;50.892;5.740;2022-08-19T11:51:05;100608.69;;;30.97;40.55
5053;BME280;2545;50.892;5.740;2022-08-19T11:53:34;100613.69;;;30.15;41.19
5053;BME280;2545;50.892;5.740;2022-08-19T11:56:00;100609.00;;;32.44;38.23
5053;BME280;2545;50.892;5.740;2022-08-19T11:58:25;100604.94;;;32.76;36.73
5053;BME280;2545;50.892;5.740;2022-08-19T12:00:51;100595.53;;;33.58;35.33
5053;BME280;2545;50.892;5.740;2022-08-19T12:03:16;100618.72;;;33.24;36.56
5053;BME280;2545;50.892;5.740;2022-08-19T12:05:43;100610.50;;;32.90;36.45
5053;BME280;2545;50.892;5.740;2022-08-19T12:08:08;100607.22;;;34.11;35.71
5053;BME280;2545;50.892;5.740;2022-08-19T12:10:35;100608.50;;;33.31;36.31
5053;BME280;2545;50.892;5.740;2022-08-19T12:13:01;100611.41;;;32.55;36.90
5053;BME280;2545;50.892;5.740;2022-08-19T12:15:27;100603.84;;;34.29;34.86
5053;BME280;2545;50.892;5.740;2022-08-19T12:17:54;100592.41;;;32.67;36.87
5053;BME280;2545;50.892;5.740;2022-08-19T12:20:22;100605.41;;;33.09;36.60
5053;BME280;2545;50.892;5.740;2022-08-19T12:22:48;100609.22;;;33.90;35.33
5053;BME280;2545;50.892;5.740;2022-08-19T12:25:14;100610.78;;;34.59;34.14
5053;BME280;2545;50.892;5.740;2022-08-19T12:27:39;100603.91;;;34.19;34.13
5053;BME280;2545;50.892;5.740;2022-08-19T12:30:07;100590.59;;;29.89;41.04
5053;BME280;2545;50.892;5.740;2022-08-19T12:32:33;100594.09;;;29.73;42.89
5053;BME280;2545;50.892;5.740;2022-08-19T12:34:58;100589.47;;;29.85;42.91
5053;BME280;2545;50.892;5.740;2022-08-19T12:37:24;100583.84;;;30.13;42.96
5053;BME280;2545;50.892;5.740;2022-08-19T12:39:49;100584.00;;;30.70;41.74
5053;BME280;2545;50.892;5.740;2022-08-19T12:42:15;100582.69;;;30.78;42.37
5053;BME280;2545;50.892;5.740;2022-08-19T12:44:41;100595.88;;;31.82;40.00
5053;BME280;2545;50.892;5.740;2022-08-19T12:47:09;100583.59;;;32.61;38.83
5053;BME280;2545;50.892;5.740;2022-08-19T12:49:35;100580.03;;;32.91;37.86
5053;BME280;2545;50.892;5.740;2022-08-19T12:52:03;100595.03;;;33.90;36.38
5053;BME280;2545;50.892;5.740;2022-08-19T12:54:29;100580.91;;;34.42;35.86
5053;BME280;2545;50.892;5.740;2022-08-19T12:56:56;100581.38;;;33.48;37.07
5053;BME280;2545;50.892;5.740;2022-08-19T12:59:21;100580.53;;;34.54;35.23
5053;BME280;2545;50.892;5.740;2022-08-19T13:01:47;100579.66;;;33.67;36.47
5053;BME280;2545;50.892;5.740;2022-08-19T13:04:12;100575.69;;;33.10;37.77
5053;BME280;2545;50.892;5.740;2022-08-19T13:06:37;100578.00;;;31.82;39.71
5053;BME280;2545;50.892;5.740;2022-08-19T13:09:04;100567.75;;;31.39;40.86
5053;BME280;2545;50.892;5.740;2022-08-19T13:11:29;100569.56;;;31.13;41.70
5053;BME280;2545;50.892;5.740;2022-08-19T13:13:58;100564.84;;;30.73;42.67
5053;BME280;2545;50.892;5.740;2022-08-19T13:16:24;100555.25;;;29.98;44.63
5053;BME280;2545;50.892;5.740;2022-08-19T13:18:50;100558.22;;;31.48;41.98